sensor_id;sensor_type;location;lat;lon;timestamp;P1;durP1;ratioP1;P2;durP2;ratioP2
22435;SDS011;11385;50.822;4.324;2023-08-06T00:00:30;7.00;;;3.37;;
22435;SDS011;11385;50.822;4.324;2023-08-06T00:02:58;6.30;;;2.85;;
22435;SDS011;11385;50.822;4.324;2023-08-06T00:05:24;6.85;;;3.30;;
22435;SDS011;11385;50.822;4.324;2023-08-06T00:07:51;8.10;;;3.05;;
22435;SDS011;11385;50.822;4.324;2023-08-06T00:10:17;10.95;;;3.52;;
22435;SDS011;11385;50.822;4.324;2023-08-06T00:12:44;8.45;;;3.50;;
22435;SDS011;11385;50.822;4.324;2023-08-06T00:15:11;8.93;;;3.30;;
22435;SDS011;11385;50.822;4.324;2023-08-06T00:17:38;6.37;;;3.37;;
22435;SDS011;11385;50.822;4.324;2023-08-06T00:20:05;8.98;;;3.67;;
22435;SDS011;11385;50.822;4.324;2023-08-06T00:22:32;7.83;;;3.30;;
22435;SDS011;11385;50.822;4.324;2023-08-06T00:25:00;9.35;;;4.03;;
22435;SDS011;11385;50.822;4.324;2023-08-06T00:27:27;9.35;;;4.83;;
22435;SDS011;11385;50.822;4.324;2023-08-06T00:29:54;10.53;;;4.33;;
22435;SDS011;11385;50.822;4.324;2023-08-06T00:32:21;11.22;;;4.25;;
22435;SDS011;11385;50.822;4.324;2023-08-06T00:34:48;8.38;;;4.42;;
22435;SDS011;11385;50.822;4.324;2023-08-06T00:37:16;10.75;;;5.20;;
22435;SDS011;11385;50.822;4.324;2023-08-06T00:39:43;8.60;;;4.83;;
22435;SDS011;11385;50.822;4.324;2023-08-06T00:42:11;12.90;;;5.60;;
22435;SDS011;11385;50.822;4.324;2023-08-06T00:44:38;14.68;;;5.67;;
22435;SDS011;11385;50.822;4.324;2023-08-06T00:47:06;12.40;;;5.30;;
22435;SDS011;11385;50.822;4.324;2023-08-06T00:49:35;11.33;;;6.00;;
22435;SDS011;11385;50.822;4.324;2023-08-06T00:52:04;16.50;;;6.83;;
22435;SDS011;11385;50.822;4.324;2023-08-06T00:54:33;10.53;;;6.35;;
22435;SDS011;11385;50.822;4.324;2023-08-06T00:57:01;13.85;;;6.47;;
22435;SDS011;11385;50.822;4.324;2023-08-06T00:59:28;13.98;;;7.25;;
22435;SDS011;11385;50.822;4.324;2023-08-06T01:01:56;13.35;;;7.40;;
22435;SDS011;11385;50.822;4.324;2023-08-06T01:04:22;15.23;;;7.53;;
22435;SDS011;11385;50.822;4.324;2023-08-06T01:06:53;15.28;;;8.25;;
22435;SDS011;11385;50.822;4.324;2023-08-06T01:09:42;14.83;;;8.48;;
22435;SDS011;11385;50.822;4.324;2023-08-06T01:12:32;21.62;;;9.38;;
22435;SDS011;11385;50.822;4.324;2023-08-06T01:15:01;17.30;;;10.50;;
22435;SDS011;11385;50.822;4.324;2023-08-06T01:17:29;18.82;;;10.18;;
22435;SDS011;11385;50.822;4.324;2023-08-06T01:19:56;13.78;;;8.93;;
22435;SDS011;11385;50.822;4.324;2023-08-06T01:22:23;18.05;;;10.38;;
22435;SDS011;11385;50.822;4.324;2023-08-06T01:24:50;21.62;;;10.65;;
22435;SDS011;11385;50.822;4.324;2023-08-06T01:27:21;16.90;;;9.75;;
22435;SDS011;11385;50.822;4.324;2023-08-06T01:29:56;14.43;;;9.90;;
22435;SDS011;11385;50.822;4.324;2023-08-06T01:32:24;16.32;;;9.13;;
22435;SDS011;11385;50.822;4.324;2023-08-06T01:34:52;18.02;;;9.25;;
22435;SDS011;11385;50.822;4.324;2023-08-06T01:37:21;17.42;;;9.70;;
22435;SDS011;11385;50.822;4.324;2023-08-06T01:39:48;18.10;;;9.73;;
22435;SDS011;11385;50.822;4.324;2023-08-06T01:42:15;12.40;;;8.03;;
22435;SDS011;11385;50.822;4.324;2023-08-06T01:44:41;14.58;;;8.70;;
22435;SDS011;11385;50.822;4.324;2023-08-06T01:47:08;15.88;;;8.53;;
22435;SDS011;11385;50.822;4.324;2023-08-06T01:49:35;16.02;;;8.18;;
22435;SDS011;11385;50.822;4.324;2023-08-06T01:52:01;12.18;;;7.10;;
22435;SDS011;11385;50.822;4.324;2023-08-06T01:54:29;12.65;;;6.85;;
22435;SDS011;11385;50.822;4.324;2023-08-06T01:56:55;13.88;;;6.12;;
22435;SDS011;11385;50.822;4.324;2023-08-06T01:59:24;11.38;;;4.15;;
22435;SDS011;11385;50.822;4.324;2023-08-06T02:01:50;10.28;;;3.47;;
22435;SDS011;11385;50.822;4.324;2023-08-06T02:04:17;10.48;;;3.35;;
22435;SDS011;11385;50.822;4.324;2023-08-06T02:06:44;8.53;;;2.47;;
22435;SDS011;11385;50.822;4.324;2023-08-06T02:09:10;10.70;;;2.87;;
22435;SDS011;11385;50.822;4.324;2023-08-06T02:11:37;7.25;;;2.72;;
22435;SDS011;11385;50.822;4.324;2023-08-06T02:14:04;9.95;;;2.40;;
22435;SDS011;11385;50.822;4.324;2023-08-06T02:16:30;10.58;;;3.20;;
22435;SDS011;11385;50.822;4.324;2023-08-06T02:18:57;9.73;;;2.58;;
22435;SDS011;11385;50.822;4.324;2023-08-06T02:21:23;9.88;;;2.42;;
22435;SDS011;11385;50.822;4.324;2023-08-06T02:23:50;12.05;;;2.65;;
22435;SDS011;11385;50.822;4.324;2023-08-06T02:26:17;11.33;;;2.12;;
22435;SDS011;11385;50.822;4.324;2023-08-06T02:28:43;11.60;;;2.80;;
22435;SDS011;11385;50.822;4.324;2023-08-06T02:31:10;9.20;;;2.58;;
22435;SDS011;11385;50.822;4.324;2023-08-06T02:33:37;8.65;;;2.50;;
22435;SDS011;11385;50.822;4.324;2023-08-06T02:36:03;9.58;;;2.30;;
22435;SDS011;11385;50.822;4.324;2023-08-06T02:38:31;7.80;;;2.10;;
22435;SDS011;11385;50.822;4.324;2023-08-06T02:40:58;6.30;;;2.65;;
22435;SDS011;11385;50.822;4.324;2023-08-06T02:43:29;8.73;;;2.20;;
22435;SDS011;11385;50.822;4.324;2023-08-06T02:45:57;5.60;;;2.40;;
22435;SDS011;11385;50.822;4.324;2023-08-06T02:48:24;7.78;;;2.17;;
22435;SDS011;11385;50.822;4.324;2023-08-06T02:50:51;8.95;;;2.95;;
22435;SDS011;11385;50.822;4.324;2023-08-06T02:53:17;6.72;;;2.15;;
22435;SDS011;11385;50.822;4.324;2023-08-06T02:55:45;9.88;;;2.52;;
22435;SDS011;11385;50.822;4.324;2023-08-06T02:58:15;10.48;;;3.08;;
22435;SDS011;11385;50.822;4.324;2023-08-06T03:00:42;8.93;;;2.75;;
22435;SDS011;11385;50.822;4.324;2023-08-06T03:03:09;8.38;;;3.27;;
22435;SDS011;11385;50.822;4.324;2023-08-06T03:05:36;8.20;;;3.47;;
22435;SDS011;11385;50.822;4.324;2023-08-06T03:08:02;9.20;;;4.00;;
22435;SDS011;11385;50.822;4.324;2023-08-06T03:10:29;10.93;;;4.03;;
22435;SDS011;11385;50.822;4.324;2023-08-06T03:12:56;9.68;;;4.62;;
22435;SDS011;11385;50.822;4.324;2023-08-06T03:15:22;13.90;;;6.25;;
22435;SDS011;11385;50.822;4.324;2023-08-06T03:17:49;15.20;;;8.08;;
22435;SDS011;11385;50.822;4.324;2023-08-06T03:20:15;15.50;;;8.10;;
22435;SDS011;11385;50.822;4.324;2023-08-06T03:22:42;19.98;;;11.70;;
22435;SDS011;11385;50.822;4.324;2023-08-06T03:25:09;21.35;;;11.10;;
22435;SDS011;11385;50.822;4.324;2023-08-06T03:27:35;17.73;;;10.53;;
22435;SDS011;11385;50.822;4.324;2023-08-06T03:30:02;19.60;;;10.93;;
22435;SDS011;11385;50.822;4.324;2023-08-06T03:32:29;15.40;;;11.03;;
22435;SDS011;11385;50.822;4.324;2023-08-06T03:34:55;16.93;;;10.85;;
22435;SDS011;11385;50.822;4.324;2023-08-06T03:37:22;11.73;;;7.62;;
22435;SDS011;11385;50.822;4.324;2023-08-06T03:39:48;19.52;;;7.67;;
22435;SDS011;11385;50.822;4.324;2023-08-06T03:42:15;12.90;;;5.00;;
22435;SDS011;11385;50.822;4.324;2023-08-06T03:44:42;17.75;;;5.70;;
22435;SDS011;11385;50.822;4.324;2023-08-06T03:47:08;5.67;;;3.45;;
22435;SDS011;11385;50.822;4.324;2023-08-06T03:49:35;6.37;;;3.02;;
22435;SDS011;11385;50.822;4.324;2023-08-06T03:52:01;3.33;;;1.70;;
22435;SDS011;11385;50.822;4.324;2023-08-06T03:54:28;6.22;;;1.70;;
22435;SDS011;11385;50.822;4.324;2023-08-06T03:56:55;4.50;;;1.67;;
22435;SDS011;11385;50.822;4.324;2023-08-06T03:59:22;6.72;;;1.60;;
22435;SDS011;11385;50.822;4.324;2023-08-06T04:01:48;5.95;;;1.37;;
22435;SDS011;11385;50.822;4.324;2023-08-06T04:04:15;7.08;;;1.70;;
22435;SDS011;11385;50.822;4.324;2023-08-06T04:06:42;5.05;;;1.45;;
22435;SDS011;11385;50.822;4.324;2023-08-06T04:09:08;3.90;;;1.20;;
22435;SDS011;11385;50.822;4.324;2023-08-06T04:11:35;2.05;;;1.15;;
22435;SDS011;11385;50.822;4.324;2023-08-06T04:14:01;2.52;;;1.32;;
22435;SDS011;11385;50.822;4.324;2023-08-06T04:16:28;2.95;;;1.25;;
22435;SDS011;11385;50.822;4.324;2023-08-06T04:18:55;5.15;;;1.87;;
22435;SDS011;11385;50.822;4.324;2023-08-06T04:21:21;3.75;;;1.82;;
22435;SDS011;11385;50.822;4.324;2023-08-06T04:23:48;4.15;;;2.00;;
22435;SDS011;11385;50.822;4.324;2023-08-06T04:26:15;3.52;;;2.22;;
22435;SDS011;11385;50.822;4.324;2023-08-06T04:28:41;5.65;;;2.35;;
22435;SDS011;11385;50.822;4.324;2023-08-06T04:36:36;5.97;;;2.80;;
22435;SDS011;11385;50.822;4.324;2023-08-06T04:39:04;6.80;;;3.35;;
22435;SDS011;11385;50.822;4.324;2023-08-06T04:41:31;8.08;;;2.80;;
22435;SDS011;11385;50.822;4.324;2023-08-06T04:43:57;6.10;;;3.62;;
22435;SDS011;11385;50.822;4.324;2023-08-06T04:46:24;6.90;;;3.90;;
22435;SDS011;11385;50.822;4.324;2023-08-06T04:48:50;10.00;;;4.12;;
22435;SDS011;11385;50.822;4.324;2023-08-06T04:51:17;11.18;;;5.00;;
22435;SDS011;11385;50.822;4.324;2023-08-06T04:53:44;10.32;;;4.00;;
22435;SDS011;11385;50.822;4.324;2023-08-06T04:56:10;7.53;;;3.92;;
22435;SDS011;11385;50.822;4.324;2023-08-06T04:58:37;9.98;;;4.25;;
22435;SDS011;11385;50.822;4.324;2023-08-06T05:01:04;11.38;;;4.87;;
22435;SDS011;11385;50.822;4.324;2023-08-06T05:03:30;9.13;;;4.55;;
22435;SDS011;11385;50.822;4.324;2023-08-06T05:05:57;11.75;;;4.22;;
22435;SDS011;11385;50.822;4.324;2023-08-06T05:08:23;9.15;;;4.67;;
22435;SDS011;11385;50.822;4.324;2023-08-06T05:10:50;7.15;;;4.37;;
22435;SDS011;11385;50.822;4.324;2023-08-06T05:13:16;9.28;;;3.83;;
22435;SDS011;11385;50.822;4.324;2023-08-06T05:15:43;9.15;;;3.77;;
22435;SDS011;11385;50.822;4.324;2023-08-06T05:18:11;7.15;;;3.92;;
22435;SDS011;11385;50.822;4.324;2023-08-06T05:20:39;7.60;;;3.52;;
22435;SDS011;11385;50.822;4.324;2023-08-06T05:23:07;7.05;;;3.75;;
22435;SDS011;11385;50.822;4.324;2023-08-06T05:25:34;10.10;;;4.30;;
22435;SDS011;11385;50.822;4.324;2023-08-06T05:28:01;15.75;;;4.75;;
22435;SDS011;11385;50.822;4.324;2023-08-06T05:30:28;13.22;;;5.05;;
22435;SDS011;11385;50.822;4.324;2023-08-06T05:32:55;8.73;;;3.98;;
22435;SDS011;11385;50.822;4.324;2023-08-06T05:35:22;15.98;;;4.50;;
22435;SDS011;11385;50.822;4.324;2023-08-06T05:37:50;12.93;;;4.55;;
22435;SDS011;11385;50.822;4.324;2023-08-06T05:40:17;12.65;;;5.83;;
22435;SDS011;11385;50.822;4.324;2023-08-06T05:42:43;13.10;;;5.42;;
22435;SDS011;11385;50.822;4.324;2023-08-06T05:45:10;15.75;;;5.42;;
22435;SDS011;11385;50.822;4.324;2023-08-06T05:47:36;11.12;;;5.60;;
22435;SDS011;11385;50.822;4.324;2023-08-06T05:50:03;14.00;;;5.03;;
22435;SDS011;11385;50.822;4.324;2023-08-06T05:52:30;14.23;;;4.95;;
22435;SDS011;11385;50.822;4.324;2023-08-06T05:54:57;11.40;;;4.62;;
22435;SDS011;11385;50.822;4.324;2023-08-06T05:57:23;15.80;;;5.42;;
22435;SDS011;11385;50.822;4.324;2023-08-06T05:59:50;13.30;;;3.98;;
22435;SDS011;11385;50.822;4.324;2023-08-06T06:02:17;17.80;;;5.10;;
22435;SDS011;11385;50.822;4.324;2023-08-06T06:04:44;9.48;;;4.70;;
22435;SDS011;11385;50.822;4.324;2023-08-06T06:07:11;16.48;;;4.10;;
22435;SDS011;11385;50.822;4.324;2023-08-06T06:09:37;13.60;;;4.45;;
22435;SDS011;11385;50.822;4.324;2023-08-06T06:12:05;13.18;;;4.45;;
22435;SDS011;11385;50.822;4.324;2023-08-06T06:14:33;9.68;;;4.20;;
22435;SDS011;11385;50.822;4.324;2023-08-06T06:16:59;12.63;;;5.03;;
22435;SDS011;11385;50.822;4.324;2023-08-06T06:19:26;13.88;;;4.47;;
22435;SDS011;11385;50.822;4.324;2023-08-06T06:21:53;10.88;;;4.47;;
22435;SDS011;11385;50.822;4.324;2023-08-06T06:24:22;9.35;;;3.95;;
22435;SDS011;11385;50.822;4.324;2023-08-06T06:26:48;11.05;;;4.03;;
22435;SDS011;11385;50.822;4.324;2023-08-06T06:29:15;12.53;;;4.00;;
22435;SDS011;11385;50.822;4.324;2023-08-06T06:31:41;11.33;;;4.37;;
22435;SDS011;11385;50.822;4.324;2023-08-06T06:34:08;13.00;;;4.28;;
22435;SDS011;11385;50.822;4.324;2023-08-06T06:36:34;10.53;;;4.00;;
22435;SDS011;11385;50.822;4.324;2023-08-06T06:39:01;12.60;;;3.87;;
22435;SDS011;11385;50.822;4.324;2023-08-06T06:41:28;9.40;;;4.80;;
22435;SDS011;11385;50.822;4.324;2023-08-06T06:43:57;11.12;;;4.20;;
22435;SDS011;11385;50.822;4.324;2023-08-06T06:46:23;12.07;;;4.67;;
22435;SDS011;11385;50.822;4.324;2023-08-06T06:48:50;16.70;;;4.62;;
22435;SDS011;11385;50.822;4.324;2023-08-06T06:51:17;11.43;;;4.40;;
22435;SDS011;11385;50.822;4.324;2023-08-06T06:53:43;8.45;;;3.35;;
22435;SDS011;11385;50.822;4.324;2023-08-06T06:56:10;10.43;;;3.83;;
22435;SDS011;11385;50.822;4.324;2023-08-06T06:58:36;12.68;;;3.62;;
22435;SDS011;11385;50.822;4.324;2023-08-06T07:01:05;8.73;;;2.58;;
22435;SDS011;11385;50.822;4.324;2023-08-06T07:03:31;7.72;;;2.98;;
22435;SDS011;11385;50.822;4.324;2023-08-06T07:05:58;9.33;;;2.52;;
22435;SDS011;11385;50.822;4.324;2023-08-06T07:08:25;6.97;;;2.40;;
22435;SDS011;11385;50.822;4.324;2023-08-06T07:10:59;8.85;;;2.33;;
22435;SDS011;11385;50.822;4.324;2023-08-06T07:13:27;8.98;;;2.00;;
22435;SDS011;11385;50.822;4.324;2023-08-06T07:15:54;9.53;;;2.20;;
22435;SDS011;11385;50.822;4.324;2023-08-06T07:18:21;8.80;;;2.65;;
22435;SDS011;11385;50.822;4.324;2023-08-06T07:20:50;8.43;;;2.25;;
22435;SDS011;11385;50.822;4.324;2023-08-06T07:23:20;8.78;;;2.12;;
22435;SDS011;11385;50.822;4.324;2023-08-06T07:25:47;7.70;;;1.98;;
22435;SDS011;11385;50.822;4.324;2023-08-06T07:28:15;8.80;;;2.20;;
22435;SDS011;11385;50.822;4.324;2023-08-06T07:30:42;10.00;;;2.92;;
22435;SDS011;11385;50.822;4.324;2023-08-06T07:33:10;4.58;;;1.77;;
22435;SDS011;11385;50.822;4.324;2023-08-06T07:35:37;6.40;;;1.50;;
22435;SDS011;11385;50.822;4.324;2023-08-06T07:38:04;9.25;;;1.90;;
22435;SDS011;11385;50.822;4.324;2023-08-06T07:40:31;8.68;;;1.92;;
22435;SDS011;11385;50.822;4.324;2023-08-06T07:42:58;11.10;;;2.17;;
22435;SDS011;11385;50.822;4.324;2023-08-06T07:45:24;9.43;;;1.92;;
22435;SDS011;11385;50.822;4.324;2023-08-06T07:47:52;10.60;;;1.70;;
22435;SDS011;11385;50.822;4.324;2023-08-06T07:50:20;8.80;;;1.70;;
22435;SDS011;11385;50.822;4.324;2023-08-06T07:52:47;13.30;;;1.92;;
22435;SDS011;11385;50.822;4.324;2023-08-06T07:55:13;6.00;;;1.25;;
22435;SDS011;11385;50.822;4.324;2023-08-06T07:57:41;15.83;;;2.35;;
22435;SDS011;11385;50.822;4.324;2023-08-06T08:00:08;9.60;;;1.85;;
22435;SDS011;11385;50.822;4.324;2023-08-06T08:02:35;11.65;;;1.60;;
22435;SDS011;11385;50.822;4.324;2023-08-06T08:05:02;7.53;;;1.57;;
22435;SDS011;11385;50.822;4.324;2023-08-06T08:07:29;11.65;;;1.42;;
22435;SDS011;11385;50.822;4.324;2023-08-06T08:09:56;9.18;;;1.87;;
22435;SDS011;11385;50.822;4.324;2023-08-06T08:12:23;9.38;;;1.70;;
22435;SDS011;11385;50.822;4.324;2023-08-06T08:14:49;8.68;;;1.95;;
22435;SDS011;11385;50.822;4.324;2023-08-06T08:17:16;12.78;;;2.00;;
22435;SDS011;11385;50.822;4.324;2023-08-06T08:19:43;13.50;;;2.58;;
22435;SDS011;11385;50.822;4.324;2023-08-06T08:22:09;9.25;;;1.60;;
22435;SDS011;11385;50.822;4.324;2023-08-06T08:24:36;6.75;;;1.47;;
22435;SDS011;11385;50.822;4.324;2023-08-06T08:27:03;8.58;;;2.00;;
22435;SDS011;11385;50.822;4.324;2023-08-06T08:29:31;10.30;;;2.27;;
22435;SDS011;11385;50.822;4.324;2023-08-06T08:31:58;12.00;;;1.35;;
22435;SDS011;11385;50.822;4.324;2023-08-06T08:34:24;6.75;;;1.70;;
22435;SDS011;11385;50.822;4.324;2023-08-06T08:36:51;7.65;;;2.20;;
22435;SDS011;11385;50.822;4.324;2023-08-06T08:39:18;7.67;;;2.42;;
22435;SDS011;11385;50.822;4.324;2023-08-06T08:41:44;9.55;;;1.75;;
22435;SDS011;11385;50.822;4.324;2023-08-06T08:44:11;7.95;;;1.72;;
22435;SDS011;11385;50.822;4.324;2023-08-06T08:46:40;7.97;;;1.95;;
22435;SDS011;11385;50.822;4.324;2023-08-06T08:49:08;8.73;;;1.70;;
22435;SDS011;11385;50.822;4.324;2023-08-06T08:51:34;11.20;;;2.08;;
22435;SDS011;11385;50.822;4.324;2023-08-06T08:54:02;6.78;;;1.22;;
22435;SDS011;11385;50.822;4.324;2023-08-06T08:56:30;8.33;;;1.87;;
22435;SDS011;11385;50.822;4.324;2023-08-06T08:58:57;9.43;;;1.80;;
22435;SDS011;11385;50.822;4.324;2023-08-06T09:01:25;8.18;;;1.52;;
22435;SDS011;11385;50.822;4.324;2023-08-06T09:03:53;5.37;;;1.42;;
22435;SDS011;11385;50.822;4.324;2023-08-06T09:06:21;10.45;;;2.05;;
22435;SDS011;11385;50.822;4.324;2023-08-06T09:08:56;5.95;;;1.80;;
22435;SDS011;11385;50.822;4.324;2023-08-06T09:11:25;5.95;;;1.45;;
22435;SDS011;11385;50.822;4.324;2023-08-06T09:13:53;9.90;;;1.90;;
22435;SDS011;11385;50.822;4.324;2023-08-06T09:16:21;9.15;;;2.35;;
22435;SDS011;11385;50.822;4.324;2023-08-06T09:18:47;8.38;;;1.77;;
22435;SDS011;11385;50.822;4.324;2023-08-06T09:21:14;8.95;;;2.00;;
22435;SDS011;11385;50.822;4.324;2023-08-06T09:23:41;7.70;;;1.70;;
22435;SDS011;11385;50.822;4.324;2023-08-06T09:26:10;9.90;;;1.90;;
22435;SDS011;11385;50.822;4.324;2023-08-06T09:28:38;10.15;;;2.15;;
22435;SDS011;11385;50.822;4.324;2023-08-06T09:31:07;9.33;;;2.22;;
22435;SDS011;11385;50.822;4.324;2023-08-06T09:33:36;11.15;;;1.87;;
22435;SDS011;11385;50.822;4.324;2023-08-06T09:36:07;8.48;;;2.10;;
22435;SDS011;11385;50.822;4.324;2023-08-06T09:38:38;9.95;;;2.17;;
22435;SDS011;11385;50.822;4.324;2023-08-06T09:41:06;10.27;;;1.90;;
22435;SDS011;11385;50.822;4.324;2023-08-06T09:43:40;8.70;;;2.98;;
22435;SDS011;11385;50.822;4.324;2023-08-06T09:46:10;8.25;;;1.80;;
22435;SDS011;11385;50.822;4.324;2023-08-06T09:48:40;8.43;;;2.55;;
22435;SDS011;11385;50.822;4.324;2023-08-06T09:51:07;8.48;;;1.95;;
22435;SDS011;11385;50.822;4.324;2023-08-06T09:53:35;11.45;;;2.20;;
22435;SDS011;11385;50.822;4.324;2023-08-06T09:56:04;7.30;;;1.82;;
22435;SDS011;11385;50.822;4.324;2023-08-06T09:58:30;10.65;;;2.42;;
22435;SDS011;11385;50.822;4.324;2023-08-06T10:00:59;12.20;;;2.00;;
22435;SDS011;11385;50.822;4.324;2023-08-06T10:03:27;9.15;;;1.70;;
22435;SDS011;11385;50.822;4.324;2023-08-06T10:05:55;6.72;;;1.98;;
22435;SDS011;11385;50.822;4.324;2023-08-06T10:08:22;8.03;;;1.65;;
22435;SDS011;11385;50.822;4.324;2023-08-06T10:10:49;11.20;;;2.65;;
22435;SDS011;11385;50.822;4.324;2023-08-06T10:13:16;6.72;;;1.32;;
22435;SDS011;11385;50.822;4.324;2023-08-06T10:15:46;8.60;;;1.60;;
22435;SDS011;11385;50.822;4.324;2023-08-06T10:18:12;6.00;;;1.42;;
22435;SDS011;11385;50.822;4.324;2023-08-06T10:20:41;7.10;;;1.95;;
22435;SDS011;11385;50.822;4.324;2023-08-06T10:23:08;10.32;;;2.08;;
22435;SDS011;11385;50.822;4.324;2023-08-06T10:25:35;10.63;;;1.70;;
22435;SDS011;11385;50.822;4.324;2023-08-06T10:28:07;8.23;;;1.80;;
22435;SDS011;11385;50.822;4.324;2023-08-06T10:30:40;8.70;;;1.98;;
22435;SDS011;11385;50.822;4.324;2023-08-06T10:33:08;7.90;;;1.55;;
22435;SDS011;11385;50.822;4.324;2023-08-06T10:35:36;10.40;;;1.87;;
22435;SDS011;11385;50.822;4.324;2023-08-06T10:38:08;7.37;;;1.65;;
22435;SDS011;11385;50.822;4.324;2023-08-06T10:40:36;7.28;;;1.70;;
22435;SDS011;11385;50.822;4.324;2023-08-06T10:43:05;7.12;;;1.70;;
22435;SDS011;11385;50.822;4.324;2023-08-06T10:45:34;8.15;;;1.77;;
22435;SDS011;11385;50.822;4.324;2023-08-06T10:48:02;9.10;;;2.00;;
22435;SDS011;11385;50.822;4.324;2023-08-06T10:50:30;9.18;;;2.00;;
22435;SDS011;11385;50.822;4.324;2023-08-06T10:53:00;10.48;;;1.95;;
22435;SDS011;11385;50.822;4.324;2023-08-06T10:55:29;7.83;;;1.97;;
22435;SDS011;11385;50.822;4.324;2023-08-06T10:57:56;9.08;;;1.87;;
22435;SDS011;11385;50.822;4.324;2023-08-06T11:00:24;8.93;;;2.20;;
22435;SDS011;11385;50.822;4.324;2023-08-06T11:02:51;14.33;;;2.25;;
22435;SDS011;11385;50.822;4.324;2023-08-06T11:05:19;6.83;;;1.75;;
22435;SDS011;11385;50.822;4.324;2023-08-06T11:07:46;6.78;;;1.80;;
22435;SDS011;11385;50.822;4.324;2023-08-06T11:10:14;6.35;;;2.05;;
22435;SDS011;11385;50.822;4.324;2023-08-06T11:12:41;9.93;;;2.20;;
22435;SDS011;11385;50.822;4.324;2023-08-06T11:15:08;12.03;;;2.02;;
22435;SDS011;11385;50.822;4.324;2023-08-06T11:17:36;10.65;;;2.15;;
22435;SDS011;11385;50.822;4.324;2023-08-06T11:20:03;8.78;;;1.77;;
22435;SDS011;11385;50.822;4.324;2023-08-06T11:22:31;7.33;;;2.00;;
22435;SDS011;11385;50.822;4.324;2023-08-06T11:24:58;9.43;;;1.92;;
22435;SDS011;11385;50.822;4.324;2023-08-06T11:27:26;8.43;;;2.10;;
22435;SDS011;11385;50.822;4.324;2023-08-06T11:29:54;6.95;;;1.95;;
22435;SDS011;11385;50.822;4.324;2023-08-06T11:32:21;5.17;;;1.65;;
22435;SDS011;11385;50.822;4.324;2023-08-06T11:34:48;8.20;;;1.62;;
22435;SDS011;11385;50.822;4.324;2023-08-06T11:37:14;7.50;;;1.30;;
22435;SDS011;11385;50.822;4.324;2023-08-06T11:39:45;6.67;;;1.55;;
22435;SDS011;11385;50.822;4.324;2023-08-06T11:42:12;8.23;;;1.40;;
22435;SDS011;11385;50.822;4.324;2023-08-06T11:44:40;8.08;;;1.30;;
22435;SDS011;11385;50.822;4.324;2023-08-06T11:47:12;5.45;;;1.30;;
22435;SDS011;11385;50.822;4.324;2023-08-06T11:49:44;5.50;;;1.52;;
22435;SDS011;11385;50.822;4.324;2023-08-06T11:52:23;7.45;;;1.85;;
22435;SDS011;11385;50.822;4.324;2023-08-06T11:57:32;5.03;;;1.40;;
22435;SDS011;11385;50.822;4.324;2023-08-06T12:00:03;6.00;;;1.57;;
22435;SDS011;11385;50.822;4.324;2023-08-06T12:02:32;4.60;;;1.62;;
22435;SDS011;11385;50.822;4.324;2023-08-06T12:05:03;5.20;;;1.70;;
22435;SDS011;11385;50.822;4.324;2023-08-06T12:07:32;8.08;;;2.00;;
22435;SDS011;11385;50.822;4.324;2023-08-06T12:10:01;10.65;;;1.90;;
22435;SDS011;11385;50.822;4.324;2023-08-06T12:12:28;6.28;;;1.50;;
22435;SDS011;11385;50.822;4.324;2023-08-06T12:14:55;4.55;;;1.32;;
22435;SDS011;11385;50.822;4.324;2023-08-06T12:17:22;9.90;;;1.87;;
22435;SDS011;11385;50.822;4.324;2023-08-06T12:19:50;8.48;;;2.27;;
22435;SDS011;11385;50.822;4.324;2023-08-06T12:22:16;7.67;;;1.85;;
22435;SDS011;11385;50.822;4.324;2023-08-06T12:24:45;7.62;;;1.92;;
22435;SDS011;11385;50.822;4.324;2023-08-06T12:27:12;9.13;;;1.85;;
22435;SDS011;11385;50.822;4.324;2023-08-06T12:29:40;7.72;;;2.30;;
22435;SDS011;11385;50.822;4.324;2023-08-06T12:32:09;9.20;;;1.75;;
22435;SDS011;11385;50.822;4.324;2023-08-06T12:34:39;9.25;;;1.80;;
22435;SDS011;11385;50.822;4.324;2023-08-06T12:37:08;6.30;;;1.50;;
22435;SDS011;11385;50.822;4.324;2023-08-06T12:39:35;7.78;;;2.20;;
22435;SDS011;11385;50.822;4.324;2023-08-06T12:42:03;10.32;;;2.08;;
22435;SDS011;11385;50.822;4.324;2023-08-06T12:44:31;6.20;;;1.60;;
22435;SDS011;11385;50.822;4.324;2023-08-06T12:46:58;6.10;;;1.32;;
22435;SDS011;11385;50.822;4.324;2023-08-06T12:49:25;7.65;;;1.85;;
22435;SDS011;11385;50.822;4.324;2023-08-06T12:51:53;5.28;;;1.30;;
22435;SDS011;11385;50.822;4.324;2023-08-06T12:54:22;7.20;;;1.50;;
22435;SDS011;11385;50.822;4.324;2023-08-06T12:56:48;8.60;;;1.90;;
22435;SDS011;11385;50.822;4.324;2023-08-06T12:59:16;6.97;;;1.40;;
22435;SDS011;11385;50.822;4.324;2023-08-06T13:01:43;7.85;;;1.67;;
22435;SDS011;11385;50.822;4.324;2023-08-06T13:04:10;8.00;;;2.30;;
22435;SDS011;11385;50.822;4.324;2023-08-06T13:06:38;7.85;;;1.80;;
22435;SDS011;11385;50.822;4.324;2023-08-06T13:09:06;8.38;;;2.33;;
22435;SDS011;11385;50.822;4.324;2023-08-06T13:11:34;10.15;;;2.12;;
22435;SDS011;11385;50.822;4.324;2023-08-06T13:14:04;6.62;;;1.77;;
22435;SDS011;11385;50.822;4.324;2023-08-06T13:16:32;6.03;;;1.90;;
22435;SDS011;11385;50.822;4.324;2023-08-06T13:18:59;6.42;;;1.98;;
22435;SDS011;11385;50.822;4.324;2023-08-06T13:21:31;6.45;;;1.77;;
22435;SDS011;11385;50.822;4.324;2023-08-06T13:24:00;9.80;;;2.75;;
22435;SDS011;11385;50.822;4.324;2023-08-06T13:26:28;7.70;;;2.10;;
22435;SDS011;11385;50.822;4.324;2023-08-06T13:28:57;9.25;;;2.20;;
22435;SDS011;11385;50.822;4.324;2023-08-06T13:31:25;10.58;;;2.20;;
22435;SDS011;11385;50.822;4.324;2023-08-06T13:33:53;8.00;;;1.70;;
22435;SDS011;11385;50.822;4.324;2023-08-06T13:36:21;7.72;;;2.33;;
22435;SDS011;11385;50.822;4.324;2023-08-06T13:38:48;10.98;;;2.80;;
22435;SDS011;11385;50.822;4.324;2023-08-06T13:41:15;6.53;;;1.55;;
22435;SDS011;11385;50.822;4.324;2023-08-06T13:43:42;7.22;;;1.87;;
22435;SDS011;11385;50.822;4.324;2023-08-06T13:46:10;5.03;;;1.50;;
22435;SDS011;11385;50.822;4.324;2023-08-06T13:48:39;8.95;;;1.87;;
22435;SDS011;11385;50.822;4.324;2023-08-06T13:51:06;8.18;;;1.95;;
22435;SDS011;11385;50.822;4.324;2023-08-06T13:53:33;8.15;;;1.57;;
22435;SDS011;11385;50.822;4.324;2023-08-06T13:55:59;5.20;;;1.27;;
22435;SDS011;11385;50.822;4.324;2023-08-06T13:58:27;8.48;;;2.50;;
22435;SDS011;11385;50.822;4.324;2023-08-06T14:00:53;12.55;;;2.83;;
22435;SDS011;11385;50.822;4.324;2023-08-06T14:03:21;8.03;;;2.05;;
22435;SDS011;11385;50.822;4.324;2023-08-06T14:05:47;7.20;;;1.87;;
22435;SDS011;11385;50.822;4.324;2023-08-06T14:08:15;9.18;;;1.80;;
22435;SDS011;11385;50.822;4.324;2023-08-06T14:10:44;7.53;;;1.67;;
22435;SDS011;11385;50.822;4.324;2023-08-06T14:13:11;10.38;;;2.30;;
22435;SDS011;11385;50.822;4.324;2023-08-06T14:15:38;9.13;;;1.50;;
22435;SDS011;11385;50.822;4.324;2023-08-06T14:18:06;6.45;;;1.57;;
22435;SDS011;11385;50.822;4.324;2023-08-06T14:20:34;6.35;;;1.62;;
22435;SDS011;11385;50.822;4.324;2023-08-06T14:23:00;6.65;;;1.50;;
22435;SDS011;11385;50.822;4.324;2023-08-06T14:25:28;6.28;;;1.65;;
22435;SDS011;11385;50.822;4.324;2023-08-06T14:27:56;10.93;;;2.02;;
22435;SDS011;11385;50.822;4.324;2023-08-06T14:30:23;7.65;;;1.90;;
22435;SDS011;11385;50.822;4.324;2023-08-06T14:32:49;9.45;;;1.85;;
22435;SDS011;11385;50.822;4.324;2023-08-06T14:35:16;8.55;;;1.60;;
22435;SDS011;11385;50.822;4.324;2023-08-06T14:37:43;7.47;;;1.85;;
22435;SDS011;11385;50.822;4.324;2023-08-06T14:40:11;11.10;;;2.55;;
22435;SDS011;11385;50.822;4.324;2023-08-06T14:42:38;8.10;;;2.10;;
22435;SDS011;11385;50.822;4.324;2023-08-06T14:45:05;9.18;;;1.77;;
22435;SDS011;11385;50.822;4.324;2023-08-06T14:47:32;9.18;;;1.87;;
22435;SDS011;11385;50.822;4.324;2023-08-06T14:49:59;10.72;;;2.55;;
22435;SDS011;11385;50.822;4.324;2023-08-06T14:52:25;9.20;;;2.33;;